sensor_id;sensor_type;location;lat;lon;timestamp;P1;durP1;ratioP1;P2;durP2;ratioP2
20840;SDS011;10581;48.524;9.040;2022-08-20T00:00:22;2.75;;;1.40;;
20840;SDS011;10581;48.524;9.040;2022-08-20T00:02:53;3.42;;;1.33;;
20840;SDS011;10581;48.524;9.040;2022-08-20T00:05:38;2.30;;;0.90;;
20840;SDS011;10581;48.524;9.040;2022-08-20T00:08:07;3.00;;;1.40;;
20840;SDS011;10581;48.524;9.040;2022-08-20T00:10:34;2.53;;;1.15;;
20840;SDS011;10581;48.524;9.040;2022-08-20T00:13:01;2.80;;;1.40;;
20840;SDS011;10581;48.524;9.040;2022-08-20T00:15:31;3.03;;;1.33;;
20840;SDS011;10581;48.524;9.040;2022-08-20T00:17:59;2.77;;;1.27;;
20840;SDS011;10581;48.524;9.040;2022-08-20T00:20:26;2.50;;;1.40;;
20840;SDS011;10581;48.524;9.040;2022-08-20T00:22:54;3.15;;;1.50;;
20840;SDS011;10581;48.524;9.040;2022-08-20T00:25:22;2.80;;;1.17;;
20840;SDS011;10581;48.524;9.040;2022-08-20T00:27:48;2.60;;;1.10;;
20840;SDS011;10581;48.524;9.040;2022-08-20T00:30:14;2.70;;;1.10;;
20840;SDS011;10581;48.524;9.040;2022-08-20T00:32:44;2.33;;;0.93;;
20840;SDS011;10581;48.524;9.040;2022-08-20T00:35:29;2.50;;;1.20;;
20840;SDS011;10581;48.524;9.040;2022-08-20T00:37:57;2.53;;;1.05;;
20840;SDS011;10581;48.524;9.040;2022-08-20T00:40:25;2.70;;;1.30;;
20840;SDS011;10581;48.524;9.040;2022-08-20T00:42:57;3.05;;;1.75;;
20840;SDS011;10581;48.524;9.040;2022-08-20T00:45:25;2.42;;;1.08;;
20840;SDS011;10581;48.524;9.040;2022-08-20T00:47:53;3.25;;;1.30;;
20840;SDS011;10581;48.524;9.040;2022-08-20T00:50:26;3.10;;;1.45;;
20840;SDS011;10581;48.524;9.040;2022-08-20T00:52:58;2.67;;;1.20;;
20840;SDS011;10581;48.524;9.040;2022-08-20T00:55:26;2.80;;;1.20;;
20840;SDS011;10581;48.524;9.040;2022-08-20T00:57:55;2.95;;;1.60;;
20840;SDS011;10581;48.524;9.040;2022-08-20T01:00:27;2.63;;;1.10;;
20840;SDS011;10581;48.524;9.040;2022-08-20T01:02:57;3.20;;;1.25;;
20840;SDS011;10581;48.524;9.040;2022-08-20T01:05:24;3.40;;;1.88;;
20840;SDS011;10581;48.524;9.040;2022-08-20T01:07:50;3.08;;;1.48;;
20840;SDS011;10581;48.524;9.040;2022-08-20T01:10:19;2.47;;;1.08;;
20840;SDS011;10581;48.524;9.040;2022-08-20T01:12:47;3.15;;;1.55;;
20840;SDS011;10581;48.524;9.040;2022-08-20T01:15:15;3.10;;;1.60;;
20840;SDS011;10581;48.524;9.040;2022-08-20T01:17:43;2.78;;;1.02;;
20840;SDS011;10581;48.524;9.040;2022-08-20T01:20:32;3.63;;;1.20;;
20840;SDS011;10581;48.524;9.040;2022-08-20T01:23:06;3.17;;;1.50;;
20840;SDS011;10581;48.524;9.040;2022-08-20T01:31:04;2.30;;;1.00;;
20840;SDS011;10581;48.524;9.040;2022-08-20T01:43:20;3.80;;;1.10;;
20840;SDS011;10581;48.524;9.040;2022-08-20T01:45:47;2.53;;;1.10;;
20840;SDS011;10581;48.524;9.040;2022-08-20T01:48:14;2.80;;;1.40;;
20840;SDS011;10581;48.524;9.040;2022-08-20T01:50:41;2.72;;;1.25;;
20840;SDS011;10581;48.524;9.040;2022-08-20T01:53:20;3.15;;;1.35;;
20840;SDS011;10581;48.524;9.040;2022-08-20T03:50:21;7.63;;;2.33;;
20840;SDS011;10581;48.524;9.040;2022-08-20T03:52:50;3.72;;;1.70;;
20840;SDS011;10581;48.524;9.040;2022-08-20T03:55:16;4.18;;;2.00;;
20840;SDS011;10581;48.524;9.040;2022-08-20T03:57:43;3.95;;;2.35;;
20840;SDS011;10581;48.524;9.040;2022-08-20T04:00:15;3.80;;;2.25;;
20840;SDS011;10581;48.524;9.040;2022-08-20T04:02:44;4.30;;;2.45;;
20840;SDS011;10581;48.524;9.040;2022-08-20T04:05:10;3.78;;;2.20;;
20840;SDS011;10581;48.524;9.040;2022-08-20T04:07:37;4.05;;;2.22;;
20840;SDS011;10581;48.524;9.040;2022-08-20T04:10:04;3.80;;;2.20;;
20840;SDS011;10581;48.524;9.040;2022-08-20T04:12:34;5.65;;;3.00;;
20840;SDS011;10581;48.524;9.040;2022-08-20T04:15:14;4.25;;;2.42;;
20840;SDS011;10581;48.524;9.040;2022-08-20T04:17:41;4.18;;;2.30;;
20840;SDS011;10581;48.524;9.040;2022-08-20T04:20:10;3.53;;;1.90;;
20840;SDS011;10581;48.524;9.040;2022-08-20T04:22:38;5.10;;;2.67;;
20840;SDS011;10581;48.524;9.040;2022-08-20T04:25:04;4.17;;;2.50;;
20840;SDS011;10581;48.524;9.040;2022-08-20T04:27:35;4.63;;;2.72;;
20840;SDS011;10581;48.524;9.040;2022-08-20T04:30:02;4.00;;;2.42;;
20840;SDS011;10581;48.524;9.040;2022-08-20T04:32:29;4.55;;;2.53;;
20840;SDS011;10581;48.524;9.040;2022-08-20T04:34:55;5.90;;;2.77;;
20840;SDS011;10581;48.524;9.040;2022-08-20T04:37:21;5.10;;;2.90;;
20840;SDS011;10581;48.524;9.040;2022-08-20T04:39:47;4.57;;;2.60;;
20840;SDS011;10581;48.524;9.040;2022-08-20T04:42:37;3.80;;;2.20;;
20840;SDS011;10581;48.524;9.040;2022-08-20T04:45:06;5.00;;;3.10;;
20840;SDS011;10581;48.524;9.040;2022-08-20T04:47:33;5.45;;;2.95;;
20840;SDS011;10581;48.524;9.040;2022-08-20T08:08:33;4.57;;;2.95;;
20840;SDS011;10581;48.524;9.040;2022-08-20T08:11:00;5.35;;;3.22;;
20840;SDS011;10581;48.524;9.040;2022-08-20T08:13:29;8.70;;;3.20;;
20840;SDS011;10581;48.524;9.040;2022-08-20T08:15:58;4.57;;;2.90;;
20840;SDS011;10581;48.524;9.040;2022-08-20T08:18:27;6.10;;;3.47;;
20840;SDS011;10581;48.524;9.040;2022-08-20T08:21:00;4.83;;;2.83;;
20840;SDS011;10581;48.524;9.040;2022-08-20T08:23:26;4.50;;;2.80;;
20840;SDS011;10581;48.524;9.040;2022-08-20T08:25:53;4.63;;;2.75;;
20840;SDS011;10581;48.524;9.040;2022-08-20T08:28:19;4.33;;;2.63;;
20840;SDS011;10581;48.524;9.040;2022-08-20T08:30:46;4.53;;;2.83;;
20840;SDS011;10581;48.524;9.040;2022-08-20T08:33:22;3.90;;;2.30;;
20840;SDS011;10581;48.524;9.040;2022-08-20T08:36:06;4.90;;;2.90;;
20840;SDS011;10581;48.524;9.040;2022-08-20T08:38:35;4.00;;;2.58;;
20840;SDS011;10581;48.524;9.040;2022-08-20T08:41:23;4.90;;;2.35;;
20840;SDS011;10581;48.524;9.040;2022-08-20T08:43:57;3.78;;;2.40;;
20840;SDS011;10581;48.524;9.040;2022-08-20T08:46:43;3.60;;;2.40;;
20840;SDS011;10581;48.524;9.040;2022-08-20T08:49:13;3.50;;;2.10;;
20840;SDS011;10581;48.524;9.040;2022-08-20T08:51:46;3.33;;;2.10;;
20840;SDS011;10581;48.524;9.040;2022-08-20T08:54:17;3.70;;;2.27;;
20840;SDS011;10581;48.524;9.040;2022-08-20T08:56:44;3.90;;;2.60;;
20840;SDS011;10581;48.524;9.040;2022-08-20T08:59:11;4.10;;;2.38;;
20840;SDS011;10581;48.524;9.040;2022-08-20T09:01:41;4.30;;;3.00;;
20840;SDS011;10581;48.524;9.040;2022-08-20T09:04:12;3.88;;;2.67;;
20840;SDS011;10581;48.524;9.040;2022-08-20T09:06:39;4.63;;;2.78;;
20840;SDS011;10581;48.524;9.040;2022-08-20T09:09:09;4.25;;;2.42;;
20840;SDS011;10581;48.524;9.040;2022-08-20T09:11:47;4.57;;;2.63;;
20840;SDS011;10581;48.524;9.040;2022-08-20T09:14:15;3.85;;;2.45;;
20840;SDS011;10581;48.524;9.040;2022-08-20T09:16:41;4.83;;;3.20;;
20840;SDS011;10581;48.524;9.040;2022-08-20T09:19:06;5.20;;;2.57;;
20840;SDS011;10581;48.524;9.040;2022-08-20T09:21:32;3.97;;;2.77;;
20840;SDS011;10581;48.524;9.040;2022-08-20T09:23:57;3.90;;;2.27;;
20840;SDS011;10581;48.524;9.040;2022-08-20T09:26:23;4.13;;;2.50;;
20840;SDS011;10581;48.524;9.040;2022-08-20T09:28:49;3.60;;;2.40;;
20840;SDS011;10581;48.524;9.040;2022-08-20T09:31:14;3.90;;;2.33;;
20840;SDS011;10581;48.524;9.040;2022-08-20T09:33:40;4.27;;;2.70;;
20840;SDS011;10581;48.524;9.040;2022-08-20T09:36:06;4.93;;;2.90;;
20840;SDS011;10581;48.524;9.040;2022-08-20T09:38:31;5.05;;;2.42;;
20840;SDS011;10581;48.524;9.040;2022-08-20T09:40:57;4.30;;;2.20;;
20840;SDS011;10581;48.524;9.040;2022-08-20T09:43:23;4.05;;;2.35;;
20840;SDS011;10581;48.524;9.040;2022-08-20T09:45:48;3.90;;;2.20;;
20840;SDS011;10581;48.524;9.040;2022-08-20T09:48:14;3.80;;;2.20;;
20840;SDS011;10581;48.524;9.040;2022-08-20T09:50:41;4.20;;;2.37;;
20840;SDS011;10581;48.524;9.040;2022-08-20T09:53:10;3.40;;;2.08;;
20840;SDS011;10581;48.524;9.040;2022-08-20T09:55:38;3.65;;;2.28;;
20840;SDS011;10581;48.524;9.040;2022-08-20T09:58:11;3.40;;;1.80;;
20840;SDS011;10581;48.524;9.040;2022-08-20T10:00:56;3.58;;;1.50;;
20840;SDS011;10581;48.524;9.040;2022-08-20T10:03:25;3.30;;;1.60;;
20840;SDS011;10581;48.524;9.040;2022-08-20T10:05:50;8.90;;;1.67;;
20840;SDS011;10581;48.524;9.040;2022-08-20T10:08:16;6.20;;;2.00;;
20840;SDS011;10581;48.524;9.040;2022-08-20T10:10:42;3.40;;;1.20;;
20840;SDS011;10581;48.524;9.040;2022-08-20T10:15:33;3.23;;;1.70;;
20840;SDS011;10581;48.524;9.040;2022-08-20T10:18:01;4.30;;;1.90;;
20840;SDS011;10581;48.524;9.040;2022-08-20T10:20:29;4.32;;;2.58;;
20840;SDS011;10581;48.524;9.040;2022-08-20T10:22:55;3.80;;;2.30;;
20840;SDS011;10581;48.524;9.040;2022-08-20T10:25:21;4.40;;;2.50;;
20840;SDS011;10581;48.524;9.040;2022-08-20T10:27:47;3.30;;;1.90;;
20840;SDS011;10581;48.524;9.040;2022-08-20T10:30:12;4.60;;;2.10;;
20840;SDS011;10581;48.524;9.040;2022-08-20T10:32:39;5.20;;;2.85;;
20840;SDS011;10581;48.524;9.040;2022-08-20T10:39:58;5.20;;;3.40;;
20840;SDS011;10581;48.524;9.040;2022-08-20T10:42:24;7.20;;;4.70;;
20840;SDS011;10581;48.524;9.040;2022-08-20T10:44:50;4.70;;;3.03;;
20840;SDS011;10581;48.524;9.040;2022-08-20T10:49:41;4.00;;;2.33;;
20840;SDS011;10581;48.524;9.040;2022-08-20T10:52:07;3.50;;;1.90;;
20840;SDS011;10581;48.524;9.040;2022-08-20T10:54:33;2.93;;;1.57;;
20840;SDS011;10581;48.524;9.040;2022-08-20T10:57:02;3.77;;;1.70;;
20840;SDS011;10581;48.524;9.040;2022-08-20T10:59:28;2.80;;;1.45;;
20840;SDS011;10581;48.524;9.040;2022-08-20T11:01:54;4.13;;;1.55;;
20840;SDS011;10581;48.524;9.040;2022-08-20T11:04:20;3.10;;;1.30;;
20840;SDS011;10581;48.524;9.040;2022-08-20T11:06:46;3.13;;;1.23;;
20840;SDS011;10581;48.524;9.040;2022-08-20T11:09:11;2.30;;;1.10;;
20840;SDS011;10581;48.524;9.040;2022-08-20T11:11:37;3.80;;;1.00;;
20840;SDS011;10581;48.524;9.040;2022-08-20T11:16:28;3.13;;;1.03;;
20840;SDS011;10581;48.524;9.040;2022-08-20T11:21:20;3.70;;;1.03;;
20840;SDS011;10581;48.524;9.040;2022-08-20T11:23:46;2.57;;;1.03;;
20840;SDS011;10581;48.524;9.040;2022-08-20T11:26:17;3.00;;;1.07;;
20840;SDS011;10581;48.524;9.040;2022-08-20T11:28:46;3.10;;;1.67;;
20840;SDS011;10581;48.524;9.040;2022-08-20T11:31:12;4.57;;;1.73;;
20840;SDS011;10581;48.524;9.040;2022-08-20T11:33:37;3.23;;;1.57;;
20840;SDS011;10581;48.524;9.040;2022-08-20T11:36:03;4.50;;;1.30;;
20840;SDS011;10581;48.524;9.040;2022-08-20T11:38:29;4.05;;;1.55;;
20840;SDS011;10581;48.524;9.040;2022-08-20T11:40:55;2.80;;;1.60;;
20840;SDS011;10581;48.524;9.040;2022-08-20T11:43:21;2.30;;;1.00;;
20840;SDS011;10581;48.524;9.040;2022-08-20T11:45:48;2.37;;;1.00;;
20840;SDS011;10581;48.524;9.040;2022-08-20T11:48:16;2.35;;;0.95;;
20840;SDS011;10581;48.524;9.040;2022-08-20T11:50:42;3.00;;;1.10;;
20840;SDS011;10581;48.524;9.040;2022-08-20T11:53:08;2.38;;;1.00;;
20840;SDS011;10581;48.524;9.040;2022-08-20T11:55:35;2.77;;;1.10;;
20840;SDS011;10581;48.524;9.040;2022-08-20T11:58:01;4.53;;;1.10;;
20840;SDS011;10581;48.524;9.040;2022-08-20T12:00:27;2.90;;;1.20;;
20840;SDS011;10581;48.524;9.040;2022-08-20T12:02:54;2.47;;;1.10;;
20840;SDS011;10581;48.524;9.040;2022-08-20T12:05:20;2.67;;;1.20;;
20840;SDS011;10581;48.524;9.040;2022-08-20T12:07:45;3.27;;;1.37;;
20840;SDS011;10581;48.524;9.040;2022-08-20T12:10:11;2.07;;;0.77;;
20840;SDS011;10581;48.524;9.040;2022-08-20T12:12:37;2.63;;;1.20;;
20840;SDS011;10581;48.524;9.040;2022-08-20T12:15:03;2.70;;;1.47;;
20840;SDS011;10581;48.524;9.040;2022-08-20T12:17:30;3.13;;;1.45;;
20840;SDS011;10581;48.524;9.040;2022-08-20T12:19:57;2.53;;;1.38;;
20840;SDS011;10581;48.524;9.040;2022-08-20T12:22:25;2.30;;;1.00;;
20840;SDS011;10581;48.524;9.040;2022-08-20T12:24:52;2.55;;;1.30;;
20840;SDS011;10581;48.524;9.040;2022-08-20T12:27:19;2.60;;;1.10;;
20840;SDS011;10581;48.524;9.040;2022-08-20T12:29:47;2.78;;;1.25;;
20840;SDS011;10581;48.524;9.040;2022-08-20T12:32:16;5.07;;;1.45;;
20840;SDS011;10581;48.524;9.040;2022-08-20T12:34:42;3.50;;;1.30;;
20840;SDS011;10581;48.524;9.040;2022-08-20T12:37:09;3.17;;;1.45;;
20840;SDS011;10581;48.524;9.040;2022-08-20T12:39:37;2.47;;;1.00;;
20840;SDS011;10581;48.524;9.040;2022-08-20T12:42:06;2.47;;;1.15;;
20840;SDS011;10581;48.524;9.040;2022-08-20T12:44:32;4.15;;;1.40;;
20840;SDS011;10581;48.524;9.040;2022-08-20T12:49:38;2.72;;;1.10;;
20840;SDS011;10581;48.524;9.040;2022-08-20T12:52:05;2.38;;;0.93;;
20840;SDS011;10581;48.524;9.040;2022-08-20T12:54:31;2.20;;;0.80;;
20840;SDS011;10581;48.524;9.040;2022-08-20T12:56:58;3.15;;;1.00;;
20840;SDS011;10581;48.524;9.040;2022-08-20T12:59:24;2.10;;;0.70;;
20840;SDS011;10581;48.524;9.040;2022-08-20T13:01:50;2.47;;;0.98;;
20840;SDS011;10581;48.524;9.040;2022-08-20T13:04:17;2.75;;;0.98;;
20840;SDS011;10581;48.524;9.040;2022-08-20T13:06:43;2.30;;;0.90;;
20840;SDS011;10581;48.524;9.040;2022-08-20T13:09:09;2.13;;;0.68;;
20840;SDS011;10581;48.524;9.040;2022-08-20T13:11:35;2.25;;;0.90;;
20840;SDS011;10581;48.524;9.040;2022-08-20T13:14:01;3.93;;;0.93;;
20840;SDS011;10581;48.524;9.040;2022-08-20T13:16:27;2.17;;;0.80;;
20840;SDS011;10581;48.524;9.040;2022-08-20T13:18:52;2.33;;;0.70;;
20840;SDS011;10581;48.524;9.040;2022-08-20T13:21:18;2.70;;;1.13;;
20840;SDS011;10581;48.524;9.040;2022-08-20T13:23:44;2.00;;;0.63;;
20840;SDS011;10581;48.524;9.040;2022-08-20T13:26:09;2.13;;;0.63;;
20840;SDS011;10581;48.524;9.040;2022-08-20T13:28:35;2.53;;;1.00;;
20840;SDS011;10581;48.524;9.040;2022-08-20T13:31:00;2.23;;;0.73;;
20840;SDS011;10581;48.524;9.040;2022-08-20T13:33:27;2.30;;;0.90;;
20840;SDS011;10581;48.524;9.040;2022-08-20T13:35:53;2.15;;;0.80;;
20840;SDS011;10581;48.524;9.040;2022-08-20T13:38:20;2.33;;;0.70;;
20840;SDS011;10581;48.524;9.040;2022-08-20T13:40:46;2.33;;;0.90;;
20840;SDS011;10581;48.524;9.040;2022-08-20T13:43:11;2.53;;;1.00;;
20840;SDS011;10581;48.524;9.040;2022-08-20T13:45:37;2.13;;;0.80;;
20840;SDS011;10581;48.524;9.040;2022-08-20T13:48:04;2.20;;;0.85;;
20840;SDS011;10581;48.524;9.040;2022-08-20T13:50:30;2.50;;;1.05;;
20840;SDS011;10581;48.524;9.040;2022-08-20T13:52:56;2.70;;;1.07;;
20840;SDS011;10581;48.524;9.040;2022-08-20T13:55:22;4.87;;;1.13;;
20840;SDS011;10581;48.524;9.040;2022-08-20T13:57:49;2.40;;;0.82;;
20840;SDS011;10581;48.524;9.040;2022-08-20T14:00:17;2.70;;;1.10;;
20840;SDS011;10581;48.524;9.040;2022-08-20T14:02:47;2.85;;;0.93;;
20840;SDS011;10581;48.524;9.040;2022-08-20T14:05:13;2.73;;;1.00;;
20840;SDS011;10581;48.524;9.040;2022-08-20T14:07:40;2.88;;;1.00;;
20840;SDS011;10581;48.524;9.040;2022-08-20T14:10:08;2.20;;;0.90;;
20840;SDS011;10581;48.524;9.040;2022-08-20T14:12:36;2.03;;;0.70;;
20840;SDS011;10581;48.524;9.040;2022-08-20T14:15:02;2.20;;;0.83;;
20840;SDS011;10581;48.524;9.040;2022-08-20T14:17:30;2.30;;;0.90;;
20840;SDS011;10581;48.524;9.040;2022-08-20T14:19:58;2.53;;;1.15;;
20840;SDS011;10581;48.524;9.040;2022-08-20T14:22:26;3.10;;;1.08;;
20840;SDS011;10581;48.524;9.040;2022-08-20T14:24:52;3.20;;;1.10;;
20840;SDS011;10581;48.524;9.040;2022-08-20T14:27:19;2.60;;;1.00;;
20840;SDS011;10581;48.524;9.040;2022-08-20T14:29:46;2.53;;;1.08;;
20840;SDS011;10581;48.524;9.040;2022-08-20T14:32:13;2.05;;;0.70;;
20840;SDS011;10581;48.524;9.040;2022-08-20T14:34:40;2.60;;;1.10;;
20840;SDS011;10581;48.524;9.040;2022-08-20T14:37:20;3.78;;;1.10;;
20840;SDS011;10581;48.524;9.040;2022-08-20T14:39:51;2.10;;;0.73;;
20840;SDS011;10581;48.524;9.040;2022-08-20T14:42:21;2.30;;;0.80;;
20840;SDS011;10581;48.524;9.040;2022-08-20T14:44:48;2.30;;;0.90;;
20840;SDS011;10581;48.524;9.040;2022-08-20T14:47:16;2.50;;;0.90;;
20840;SDS011;10581;48.524;9.040;2022-08-20T14:49:47;2.30;;;0.95;;
20840;SDS011;10581;48.524;9.040;2022-08-20T14:52:14;2.40;;;0.90;;
20840;SDS011;10581;48.524;9.040;2022-08-20T14:54:42;2.50;;;0.90;;
20840;SDS011;10581;48.524;9.040;2022-08-20T14:57:08;2.28;;;1.05;;
20840;SDS011;10581;48.524;9.040;2022-08-20T14:59:35;2.33;;;0.90;;
20840;SDS011;10581;48.524;9.040;2022-08-20T15:02:04;2.40;;;1.00;;
20840;SDS011;10581;48.524;9.040;2022-08-20T15:04:33;2.40;;;0.80;;
20840;SDS011;10581;48.524;9.040;2022-08-20T15:06:59;2.60;;;1.02;;
20840;SDS011;10581;48.524;9.040;2022-08-20T15:09:30;2.45;;;0.90;;
20840;SDS011;10581;48.524;9.040;2022-08-20T15:11:57;2.30;;;0.70;;
20840;SDS011;10581;48.524;9.040;2022-08-20T15:14:23;2.20;;;0.80;;
20840;SDS011;10581;48.524;9.040;2022-08-20T15:16:49;2.50;;;0.90;;
20840;SDS011;10581;48.524;9.040;2022-08-20T15:19:15;2.43;;;0.90;;
20840;SDS011;10581;48.524;9.040;2022-08-20T15:21:41;2.73;;;0.90;;
20840;SDS011;10581;48.524;9.040;2022-08-20T15:24:07;2.20;;;0.70;;
20840;SDS011;10581;48.524;9.040;2022-08-20T15:26:32;2.10;;;0.70;;
20840;SDS011;10581;48.524;9.040;2022-08-20T15:28:58;2.37;;;0.80;;
20840;SDS011;10581;48.524;9.040;2022-08-20T15:31:24;2.50;;;1.00;;
20840;SDS011;10581;48.524;9.040;2022-08-20T15:33:49;3.97;;;0.80;;
20840;SDS011;10581;48.524;9.040;2022-08-20T15:36:15;2.20;;;0.70;;
20840;SDS011;10581;48.524;9.040;2022-08-20T15:38:41;2.20;;;0.80;;
20840;SDS011;10581;48.524;9.040;2022-08-20T15:41:07;2.53;;;0.97;;
20840;SDS011;10581;48.524;9.040;2022-08-20T15:43:32;2.23;;;0.90;;
20840;SDS011;10581;48.524;9.040;2022-08-20T15:45:58;2.40;;;1.10;;
20840;SDS011;10581;48.524;9.040;2022-08-20T15:48:30;2.60;;;0.75;;
20840;SDS011;10581;48.524;9.040;2022-08-20T15:56:55;2.10;;;0.70;;
20840;SDS011;10581;48.524;9.040;2022-08-20T16:02:35;2.28;;;0.70;;
20840;SDS011;10581;48.524;9.040;2022-08-20T16:13:37;2.30;;;0.75;;
20840;SDS011;10581;48.524;9.040;2022-08-20T16:16:03;2.30;;;0.82;;
20840;SDS011;10581;48.524;9.040;2022-08-20T16:18:35;2.40;;;0.90;;
20840;SDS011;10581;48.524;9.040;2022-08-20T16:21:05;2.47;;;0.88;;
20840;SDS011;10581;48.524;9.040;2022-08-20T16:23:36;2.20;;;0.80;;
20840;SDS011;10581;48.524;9.040;2022-08-20T16:26:21;2.85;;;1.10;;
20840;SDS011;10581;48.524;9.040;2022-08-20T16:34:40;2.50;;;0.80;;
20840;SDS011;10581;48.524;9.040;2022-08-20T16:37:20;2.45;;;0.88;;
20840;SDS011;10581;48.524;9.040;2022-08-20T16:42:30;2.22;;;0.70;;
20840;SDS011;10581;48.524;9.040;2022-08-20T16:45:00;3.05;;;0.70;;
20840;SDS011;10581;48.524;9.040;2022-08-20T16:47:30;2.22;;;0.75;;
20840;SDS011;10581;48.524;9.040;2022-08-20T16:50:04;2.40;;;1.00;;
20840;SDS011;10581;48.524;9.040;2022-08-20T16:52:30;2.30;;;0.88;;
20840;SDS011;10581;48.524;9.040;2022-08-20T16:54:56;2.17;;;0.70;;
20840;SDS011;10581;48.524;9.040;2022-08-20T16:57:22;2.30;;;0.90;;
20840;SDS011;10581;48.524;9.040;2022-08-20T17:00:11;2.72;;;0.80;;
20840;SDS011;10581;48.524;9.040;2022-08-20T17:05:47;2.10;;;0.55;;
20840;SDS011;10581;48.524;9.040;2022-08-20T17:08:16;2.40;;;0.75;;
20840;SDS011;10581;48.524;9.040;2022-08-20T17:11:00;2.10;;;0.60;;
20840;SDS011;10581;48.524;9.040;2022-08-20T17:13:45;2.20;;;0.70;;
20840;SDS011;10581;48.524;9.040;2022-08-20T17:18:38;2.10;;;0.57;;
20840;SDS011;10581;48.524;9.040;2022-08-20T17:21:13;2.92;;;0.68;;
20840;SDS011;10581;48.524;9.040;2022-08-20T17:23:50;2.38;;;0.88;;
20840;SDS011;10581;48.524;9.040;2022-08-20T17:29:10;2.40;;;0.80;;
20840;SDS011;10581;48.524;9.040;2022-08-20T17:31:38;2.55;;;0.90;;
20840;SDS011;10581;48.524;9.040;2022-08-20T17:34:14;2.63;;;0.80;;
20840;SDS011;10581;48.524;9.040;2022-08-20T17:37:05;2.38;;;0.63;;
20840;SDS011;10581;48.524;9.040;2022-08-20T17:39:46;2.42;;;0.60;;
20840;SDS011;10581;48.524;9.040;2022-08-20T17:42:22;2.88;;;0.90;;
20840;SDS011;10581;48.524;9.040;2022-08-20T17:44:51;2.10;;;0.50;;
20840;SDS011;10581;48.524;9.040;2022-08-20T17:47:21;2.20;;;0.60;;
20840;SDS011;10581;48.524;9.040;2022-08-20T17:49:58;2.88;;;0.80;;
20840;SDS011;10581;48.524;9.040;2022-08-20T17:52:54;2.20;;;0.70;;
20840;SDS011;10581;48.524;9.040;2022-08-20T17:55:20;2.53;;;0.90;;
20840;SDS011;10581;48.524;9.040;2022-08-20T17:57:48;2.73;;;1.00;;
20840;SDS011;10581;48.524;9.040;2022-08-20T18:00:18;2.95;;;1.20;;
20840;SDS011;10581;48.524;9.040;2022-08-20T18:03:00;2.92;;;1.15;;
20840;SDS011;10581;48.524;9.040;2022-08-20T18:05:38;3.30;;;1.30;;
20840;SDS011;10581;48.524;9.040;2022-08-20T18:08:08;2.80;;;0.93;;
20840;SDS011;10581;48.524;9.040;2022-08-20T18:11:04;2.78;;;1.02;;
20840;SDS011;10581;48.524;9.040;2022-08-20T18:13:40;3.00;;;1.38;;
20840;SDS011;10581;48.524;9.040;2022-08-20T18:16:09;2.92;;;1.45;;
20840;SDS011;10581;48.524;9.040;2022-08-20T18:18:52;2.50;;;1.00;;
20840;SDS011;10581;48.524;9.040;2022-08-20T18:24:25;3.40;;;1.02;;
20840;SDS011;10581;48.524;9.040;2022-08-20T18:27:00;2.55;;;0.90;;
20840;SDS011;10581;48.524;9.040;2022-08-20T18:29:29;2.42;;;0.88;;
20840;SDS011;10581;48.524;9.040;2022-08-20T18:32:01;3.65;;;0.95;;
20840;SDS011;10581;48.524;9.040;2022-08-20T18:34:39;2.35;;;0.65;;
20840;SDS011;10581;48.524;9.040;2022-08-20T18:37:18;2.97;;;0.90;;
